sensor_id;sensor_type;location;lat;lon;timestamp;P1;durP1;ratioP1;P2;durP2;ratioP2
46339;SDS011;47273;49.274;8.708;2022-10-31T04:32:04;29.52;;;27.00;;
46339;SDS011;47273;49.274;8.708;2022-10-31T04:34:30;31.10;;;28.15;;
46339;SDS011;47273;49.274;8.708;2022-10-31T04:36:55;29.10;;;26.00;;
46339;SDS011;47273;49.274;8.708;2022-10-31T04:39:21;28.77;;;25.92;;
46339;SDS011;47273;49.274;8.708;2022-10-31T04:41:47;28.60;;;25.67;;
46339;SDS011;47273;49.274;8.708;2022-10-31T04:44:12;29.85;;;27.05;;
46339;SDS011;47273;49.274;8.708;2022-10-31T04:46:38;30.10;;;26.67;;
46339;SDS011;47273;49.274;8.708;2022-10-31T04:49:04;30.25;;;27.38;;
46339;SDS011;47273;49.274;8.708;2022-10-31T04:51:29;31.05;;;27.95;;
46339;SDS011;47273;49.274;8.708;2022-10-31T04:53:55;30.13;;;27.00;;
46339;SDS011;47273;49.274;8.708;2022-10-31T04:56:20;29.45;;;26.67;;
46339;SDS011;47273;49.274;8.708;2022-10-31T04:58:46;29.38;;;26.75;;
46339;SDS011;47273;49.274;8.708;2022-10-31T05:01:13;30.23;;;27.27;;
46339;SDS011;47273;49.274;8.708;2022-10-31T05:03:38;28.02;;;25.42;;
46339;SDS011;47273;49.274;8.708;2022-10-31T05:06:05;28.35;;;25.92;;
46339;SDS011;47273;49.274;8.708;2022-10-31T05:08:31;27.45;;;24.85;;
46339;SDS011;47273;49.274;8.708;2022-10-31T05:11:00;27.63;;;24.83;;
46339;SDS011;47273;49.274;8.708;2022-10-31T05:13:28;31.55;;;25.20;;
46339;SDS011;47273;49.274;8.708;2022-10-31T05:15:54;27.30;;;24.65;;
46339;SDS011;47273;49.274;8.708;2022-10-31T05:18:19;27.50;;;24.65;;
46339;SDS011;47273;49.274;8.708;2022-10-31T05:20:45;28.08;;;25.27;;
46339;SDS011;47273;49.274;8.708;2022-10-31T05:23:11;28.48;;;25.67;;
46339;SDS011;47273;49.274;8.708;2022-10-31T05:25:37;27.30;;;24.60;;
46339;SDS011;47273;49.274;8.708;2022-10-31T05:28:04;27.00;;;24.58;;
46339;SDS011;47273;49.274;8.708;2022-10-31T05:30:30;27.50;;;24.73;;
46339;SDS011;47273;49.274;8.708;2022-10-31T05:32:57;28.08;;;25.23;;
46339;SDS011;47273;49.274;8.708;2022-10-31T05:35:27;27.83;;;25.33;;
46339;SDS011;47273;49.274;8.708;2022-10-31T05:37:54;33.65;;;25.88;;
46339;SDS011;47273;49.274;8.708;2022-10-31T05:40:20;28.45;;;25.50;;
46339;SDS011;47273;49.274;8.708;2022-10-31T05:42:46;31.02;;;25.17;;
46339;SDS011;47273;49.274;8.708;2022-10-31T05:45:16;28.48;;;25.70;;
46339;SDS011;47273;49.274;8.708;2022-10-31T05:47:56;28.30;;;25.33;;
46339;SDS011;47273;49.274;8.708;2022-10-31T05:50:24;28.73;;;25.27;;
46339;SDS011;47273;49.274;8.708;2022-10-31T05:52:54;28.95;;;25.52;;
46339;SDS011;47273;49.274;8.708;2022-10-31T05:55:21;27.73;;;24.95;;
46339;SDS011;47273;49.274;8.708;2022-10-31T05:57:47;28.27;;;24.67;;
46339;SDS011;47273;49.274;8.708;2022-10-31T06:00:13;26.33;;;23.83;;
46339;SDS011;47273;49.274;8.708;2022-10-31T06:02:38;27.13;;;24.38;;
46339;SDS011;47273;49.274;8.708;2022-10-31T06:05:04;27.20;;;24.70;;
46339;SDS011;47273;49.274;8.708;2022-10-31T06:07:33;28.02;;;25.17;;
46339;SDS011;47273;49.274;8.708;2022-10-31T06:09:59;27.95;;;25.05;;
46339;SDS011;47273;49.274;8.708;2022-10-31T06:12:25;27.40;;;24.67;;
46339;SDS011;47273;49.274;8.708;2022-10-31T06:14:51;28.08;;;25.27;;
46339;SDS011;47273;49.274;8.708;2022-10-31T06:17:17;28.40;;;25.27;;
46339;SDS011;47273;49.274;8.708;2022-10-31T06:19:42;27.80;;;25.35;;
46339;SDS011;47273;49.274;8.708;2022-10-31T06:22:08;29.27;;;25.15;;
46339;SDS011;47273;49.274;8.708;2022-10-31T06:24:36;27.30;;;24.80;;
46339;SDS011;47273;49.274;8.708;2022-10-31T06:27:02;26.95;;;24.60;;
46339;SDS011;47273;49.274;8.708;2022-10-31T06:29:28;28.48;;;25.75;;
46339;SDS011;47273;49.274;8.708;2022-10-31T06:31:53;28.27;;;25.67;;
46339;SDS011;47273;49.274;8.708;2022-10-31T06:34:19;28.55;;;25.75;;
46339;SDS011;47273;49.274;8.708;2022-10-31T06:36:48;32.22;;;26.70;;
46339;SDS011;47273;49.274;8.708;2022-10-31T06:39:14;28.23;;;25.75;;
46339;SDS011;47273;49.274;8.708;2022-10-31T06:41:40;28.20;;;25.48;;
46339;SDS011;47273;49.274;8.708;2022-10-31T06:44:06;28.67;;;25.83;;
46339;SDS011;47273;49.274;8.708;2022-10-31T06:46:32;29.35;;;26.45;;
46339;SDS011;47273;49.274;8.708;2022-10-31T06:48:59;27.95;;;25.05;;
46339;SDS011;47273;49.274;8.708;2022-10-31T06:51:24;28.73;;;25.83;;
46339;SDS011;47273;49.274;8.708;2022-10-31T06:53:50;29.75;;;26.17;;
46339;SDS011;47273;49.274;8.708;2022-10-31T06:56:16;28.38;;;25.67;;
46339;SDS011;47273;49.274;8.708;2022-10-31T06:58:41;30.25;;;27.38;;
46339;SDS011;47273;49.274;8.708;2022-10-31T07:01:07;32.90;;;26.88;;
46339;SDS011;47273;49.274;8.708;2022-10-31T07:03:33;28.80;;;26.10;;
46339;SDS011;47273;49.274;8.708;2022-10-31T07:05:58;29.45;;;26.35;;
46339;SDS011;47273;49.274;8.708;2022-10-31T07:08:24;29.10;;;26.33;;
46339;SDS011;47273;49.274;8.708;2022-10-31T07:10:54;28.48;;;25.92;;
46339;SDS011;47273;49.274;8.708;2022-10-31T07:13:22;29.58;;;26.55;;
46339;SDS011;47273;49.274;8.708;2022-10-31T07:15:51;29.20;;;26.58;;
46339;SDS011;47273;49.274;8.708;2022-10-31T07:18:23;28.75;;;25.83;;
46339;SDS011;47273;49.274;8.708;2022-10-31T07:20:49;29.88;;;26.08;;
46339;SDS011;47273;49.274;8.708;2022-10-31T07:23:16;28.42;;;25.83;;
46339;SDS011;47273;49.274;8.708;2022-10-31T07:25:41;28.77;;;25.95;;
46339;SDS011;47273;49.274;8.708;2022-10-31T07:28:07;28.38;;;25.55;;
46339;SDS011;47273;49.274;8.708;2022-10-31T07:30:34;28.63;;;25.80;;
46339;SDS011;47273;49.274;8.708;2022-10-31T07:32:59;29.25;;;26.23;;
46339;SDS011;47273;49.274;8.708;2022-10-31T07:35:26;30.80;;;28.00;;
46339;SDS011;47273;49.274;8.708;2022-10-31T07:37:53;30.25;;;27.65;;
46339;SDS011;47273;49.274;8.708;2022-10-31T07:40:20;29.92;;;27.30;;
46339;SDS011;47273;49.274;8.708;2022-10-31T07:42:47;30.25;;;27.55;;
46339;SDS011;47273;49.274;8.708;2022-10-31T07:45:15;31.23;;;27.88;;
46339;SDS011;47273;49.274;8.708;2022-10-31T07:47:46;31.13;;;27.92;;
46339;SDS011;47273;49.274;8.708;2022-10-31T07:50:14;29.65;;;26.67;;
46339;SDS011;47273;49.274;8.708;2022-10-31T07:52:41;28.58;;;25.00;;
46339;SDS011;47273;49.274;8.708;2022-10-31T07:55:08;28.95;;;25.98;;
46339;SDS011;47273;49.274;8.708;2022-10-31T07:57:34;29.20;;;26.30;;
46339;SDS011;47273;49.274;8.708;2022-10-31T08:00:02;29.90;;;26.05;;
46339;SDS011;47273;49.274;8.708;2022-10-31T08:02:32;32.42;;;28.92;;
46339;SDS011;47273;49.274;8.708;2022-10-31T08:04:58;37.35;;;32.00;;
46339;SDS011;47273;49.274;8.708;2022-10-31T08:07:24;32.97;;;29.45;;
46339;SDS011;47273;49.274;8.708;2022-10-31T08:09:51;39.53;;;27.27;;
46339;SDS011;47273;49.274;8.708;2022-10-31T08:12:17;29.70;;;26.80;;
46339;SDS011;47273;49.274;8.708;2022-10-31T08:14:42;28.98;;;26.27;;
46339;SDS011;47273;49.274;8.708;2022-10-31T08:17:09;29.50;;;26.42;;
46339;SDS011;47273;49.274;8.708;2022-10-31T08:19:35;28.00;;;25.20;;
46339;SDS011;47273;49.274;8.708;2022-10-31T08:22:00;28.85;;;25.77;;
46339;SDS011;47273;49.274;8.708;2022-10-31T08:24:26;29.77;;;26.67;;
46339;SDS011;47273;49.274;8.708;2022-10-31T08:26:52;28.02;;;25.42;;
46339;SDS011;47273;49.274;8.708;2022-10-31T08:29:17;29.23;;;26.15;;
46339;SDS011;47273;49.274;8.708;2022-10-31T08:31:43;28.27;;;25.38;;
46339;SDS011;47273;49.274;8.708;2022-10-31T08:34:09;30.35;;;26.67;;
46339;SDS011;47273;49.274;8.708;2022-10-31T08:36:34;29.77;;;26.67;;
46339;SDS011;47273;49.274;8.708;2022-10-31T08:39:00;30.45;;;26.75;;
46339;SDS011;47273;49.274;8.708;2022-10-31T08:41:26;31.73;;;28.27;;
46339;SDS011;47273;49.274;8.708;2022-10-31T08:43:52;29.58;;;26.58;;
46339;SDS011;47273;49.274;8.708;2022-10-31T08:46:18;30.45;;;27.20;;
46339;SDS011;47273;49.274;8.708;2022-10-31T08:48:43;31.92;;;27.27;;
46339;SDS011;47273;49.274;8.708;2022-10-31T08:51:09;28.85;;;25.88;;
46339;SDS011;47273;49.274;8.708;2022-10-31T08:53:35;29.33;;;26.13;;
46339;SDS011;47273;49.274;8.708;2022-10-31T08:56:01;30.25;;;27.10;;
46339;SDS011;47273;49.274;8.708;2022-10-31T08:58:27;35.35;;;27.33;;
46339;SDS011;47273;49.274;8.708;2022-10-31T09:00:53;30.08;;;26.88;;
46339;SDS011;47273;49.274;8.708;2022-10-31T09:03:23;29.98;;;26.98;;
46339;SDS011;47273;49.274;8.708;2022-10-31T09:05:54;29.80;;;26.70;;
46339;SDS011;47273;49.274;8.708;2022-10-31T09:08:21;32.83;;;26.98;;
46339;SDS011;47273;49.274;8.708;2022-10-31T09:10:46;30.50;;;27.40;;
46339;SDS011;47273;49.274;8.708;2022-10-31T09:13:14;29.52;;;26.73;;
46339;SDS011;47273;49.274;8.708;2022-10-31T09:15:44;33.60;;;27.55;;
46339;SDS011;47273;49.274;8.708;2022-10-31T09:18:12;29.98;;;27.15;;
46339;SDS011;47273;49.274;8.708;2022-10-31T09:20:40;30.67;;;27.48;;
46339;SDS011;47273;49.274;8.708;2022-10-31T09:23:08;31.67;;;28.33;;
46339;SDS011;47273;49.274;8.708;2022-10-31T09:25:37;31.00;;;27.90;;
46339;SDS011;47273;49.274;8.708;2022-10-31T09:28:04;32.17;;;28.70;;
46339;SDS011;47273;49.274;8.708;2022-10-31T09:30:31;30.77;;;27.50;;
46339;SDS011;47273;49.274;8.708;2022-10-31T09:33:00;31.88;;;28.52;;
46339;SDS011;47273;49.274;8.708;2022-10-31T09:35:27;31.65;;;28.48;;
46339;SDS011;47273;49.274;8.708;2022-10-31T09:37:54;31.48;;;28.27;;
46339;SDS011;47273;49.274;8.708;2022-10-31T09:40:25;32.05;;;28.75;;
46339;SDS011;47273;49.274;8.708;2022-10-31T09:51:18;30.67;;;27.98;;
46339;SDS011;47273;49.274;8.708;2022-10-31T09:53:54;31.13;;;27.98;;
46339;SDS011;47273;49.274;8.708;2022-10-31T09:56:24;33.13;;;27.65;;
46339;SDS011;47273;49.274;8.708;2022-10-31T09:58:56;30.55;;;27.55;;
46339;SDS011;47273;49.274;8.708;2022-10-31T10:04:37;31.67;;;28.27;;
46339;SDS011;47273;49.274;8.708;2022-10-31T10:09:46;31.40;;;28.02;;
46339;SDS011;47273;49.274;8.708;2022-10-31T10:19:05;30.23;;;27.50;;
46339;SDS011;47273;49.274;8.708;2022-10-31T10:26:38;32.08;;;28.52;;
46339;SDS011;47273;49.274;8.708;2022-10-31T10:31:54;31.88;;;28.73;;
46339;SDS011;47273;49.274;8.708;2022-10-31T10:34:26;31.33;;;28.23;;
46339;SDS011;47273;49.274;8.708;2022-10-31T10:39:29;32.08;;;29.10;;
46339;SDS011;47273;49.274;8.708;2022-10-31T10:41:59;33.38;;;28.75;;
46339;SDS011;47273;49.274;8.708;2022-10-31T10:44:45;33.85;;;30.27;;
46339;SDS011;47273;49.274;8.708;2022-10-31T10:47:45;31.25;;;28.15;;
46339;SDS011;47273;49.274;8.708;2022-10-31T10:50:21;33.47;;;28.80;;
46339;SDS011;47273;49.274;8.708;2022-10-31T10:52:58;32.35;;;29.05;;
46339;SDS011;47273;49.274;8.708;2022-10-31T10:55:53;33.22;;;28.75;;
46339;SDS011;47273;49.274;8.708;2022-10-31T10:58:25;33.72;;;29.73;;
46339;SDS011;47273;49.274;8.708;2022-10-31T11:00:50;31.95;;;28.77;;
46339;SDS011;47273;49.274;8.708;2022-10-31T11:03:19;32.50;;;29.27;;
46339;SDS011;47273;49.274;8.708;2022-10-31T11:08:26;32.20;;;28.63;;
46339;SDS011;47273;49.274;8.708;2022-10-31T11:10:58;33.85;;;28.38;;
46339;SDS011;47273;49.274;8.708;2022-10-31T11:13:24;34.60;;;29.92;;
46339;SDS011;47273;49.274;8.708;2022-10-31T11:15:54;32.78;;;29.40;;
46339;SDS011;47273;49.274;8.708;2022-10-31T11:18:36;32.60;;;29.55;;
46339;SDS011;47273;49.274;8.708;2022-10-31T11:21:17;32.70;;;29.35;;
46339;SDS011;47273;49.274;8.708;2022-10-31T11:24:07;33.20;;;30.00;;
46339;SDS011;47273;49.274;8.708;2022-10-31T11:26:38;34.80;;;31.27;;
46339;SDS011;47273;49.274;8.708;2022-10-31T11:29:05;32.63;;;29.70;;
46339;SDS011;47273;49.274;8.708;2022-10-31T11:31:38;33.05;;;29.88;;
46339;SDS011;47273;49.274;8.708;2022-10-31T11:34:06;34.58;;;31.05;;
46339;SDS011;47273;49.274;8.708;2022-10-31T11:36:38;34.22;;;30.90;;
46339;SDS011;47273;49.274;8.708;2022-10-31T11:39:18;34.85;;;31.08;;
46339;SDS011;47273;49.274;8.708;2022-10-31T11:41:47;34.92;;;28.17;;
46339;SDS011;47273;49.274;8.708;2022-10-31T11:46:46;33.13;;;29.67;;
46339;SDS011;47273;49.274;8.708;2022-10-31T11:49:27;31.42;;;28.35;;
46339;SDS011;47273;49.274;8.708;2022-10-31T11:52:08;30.83;;;27.75;;
46339;SDS011;47273;49.274;8.708;2022-10-31T11:54:50;34.58;;;29.15;;
46339;SDS011;47273;49.274;8.708;2022-10-31T11:57:48;32.97;;;29.35;;
46339;SDS011;47273;49.274;8.708;2022-10-31T12:00:37;34.30;;;29.48;;
46339;SDS011;47273;49.274;8.708;2022-10-31T12:05:48;31.45;;;28.42;;
46339;SDS011;47273;49.274;8.708;2022-10-31T12:13:34;32.53;;;28.27;;
46339;SDS011;47273;49.274;8.708;2022-10-31T12:21:48;32.97;;;29.88;;
46339;SDS011;47273;49.274;8.708;2022-10-31T12:24:31;31.63;;;28.52;;
46339;SDS011;47273;49.274;8.708;2022-10-31T12:49:35;32.05;;;29.23;;
46339;SDS011;47273;49.274;8.708;2022-10-31T12:57:56;30.73;;;26.88;;
46339;SDS011;47273;49.274;8.708;2022-10-31T13:00:27;28.90;;;26.15;;
46339;SDS011;47273;49.274;8.708;2022-10-31T13:06:02;30.33;;;27.33;;
46339;SDS011;47273;49.274;8.708;2022-10-31T13:11:12;32.90;;;27.38;;
46339;SDS011;47273;49.274;8.708;2022-10-31T13:14:32;30.02;;;26.83;;
46339;SDS011;47273;49.274;8.708;2022-10-31T13:16:32;28.73;;;25.75;;
46339;SDS011;47273;49.274;8.708;2022-10-31T13:19:16;29.88;;;26.67;;
46339;SDS011;47273;49.274;8.708;2022-10-31T13:24:23;30.58;;;25.23;;
46339;SDS011;47273;49.274;8.708;2022-10-31T13:27:02;29.38;;;25.67;;
46339;SDS011;47273;49.274;8.708;2022-10-31T13:32:50;30.85;;;25.83;;
46339;SDS011;47273;49.274;8.708;2022-10-31T13:37:51;29.25;;;26.40;;
46339;SDS011;47273;49.274;8.708;2022-10-31T13:40:37;30.83;;;27.58;;
46339;SDS011;47273;49.274;8.708;2022-10-31T13:43:12;30.48;;;27.27;;
46339;SDS011;47273;49.274;8.708;2022-10-31T13:45:49;34.28;;;27.30;;
46339;SDS011;47273;49.274;8.708;2022-10-31T13:50:42;31.08;;;27.90;;
46339;SDS011;47273;49.274;8.708;2022-10-31T13:53:20;32.17;;;28.90;;
46339;SDS011;47273;49.274;8.708;2022-10-31T13:55:49;31.60;;;28.50;;
46339;SDS011;47273;49.274;8.708;2022-10-31T13:58:30;32.50;;;29.15;;
46339;SDS011;47273;49.274;8.708;2022-10-31T14:03:40;31.42;;;28.48;;
46339;SDS011;47273;49.274;8.708;2022-10-31T14:06:08;31.17;;;27.90;;
46339;SDS011;47273;49.274;8.708;2022-10-31T14:08:36;31.63;;;28.20;;
46339;SDS011;47273;49.274;8.708;2022-10-31T14:11:05;30.48;;;27.35;;
46339;SDS011;47273;49.274;8.708;2022-10-31T14:13:43;29.95;;;27.10;;
46339;SDS011;47273;49.274;8.708;2022-10-31T14:16:18;29.63;;;26.55;;
46339;SDS011;47273;49.274;8.708;2022-10-31T14:18:47;29.92;;;27.00;;
46339;SDS011;47273;49.274;8.708;2022-10-31T14:23:48;27.98;;;25.30;;
46339;SDS011;47273;49.274;8.708;2022-10-31T14:28:54;29.75;;;26.63;;
46339;SDS011;47273;49.274;8.708;2022-10-31T14:33:52;29.35;;;26.17;;
46339;SDS011;47273;49.274;8.708;2022-10-31T14:36:22;28.75;;;25.88;;
46339;SDS011;47273;49.274;8.708;2022-10-31T14:41:41;27.88;;;25.42;;
46339;SDS011;47273;49.274;8.708;2022-10-31T14:47:16;28.23;;;25.33;;
46339;SDS011;47273;49.274;8.708;2022-10-31T14:52:35;29.30;;;26.10;;
46339;SDS011;47273;49.274;8.708;2022-10-31T14:55:03;35.33;;;26.17;;
46339;SDS011;47273;49.274;8.708;2022-10-31T14:57:32;29.02;;;26.13;;
46339;SDS011;47273;49.274;8.708;2022-10-31T15:00:03;28.85;;;25.80;;
46339;SDS011;47273;49.274;8.708;2022-10-31T15:02:36;28.52;;;25.92;;
46339;SDS011;47273;49.274;8.708;2022-10-31T15:05:13;28.90;;;26.13;;
46339;SDS011;47273;49.274;8.708;2022-10-31T15:07:49;29.77;;;26.63;;
46339;SDS011;47273;49.274;8.708;2022-10-31T15:10:22;28.83;;;26.25;;
46339;SDS011;47273;49.274;8.708;2022-10-31T15:12:50;29.83;;;26.98;;
46339;SDS011;47273;49.274;8.708;2022-10-31T15:15:23;28.55;;;25.90;;
46339;SDS011;47273;49.274;8.708;2022-10-31T15:17:54;32.10;;;26.30;;
46339;SDS011;47273;49.274;8.708;2022-10-31T15:20:23;29.13;;;26.15;;
46339;SDS011;47273;49.274;8.708;2022-10-31T15:22:51;29.15;;;26.35;;
46339;SDS011;47273;49.274;8.708;2022-10-31T15:25:20;29.45;;;26.48;;
46339;SDS011;47273;49.274;8.708;2022-10-31T15:27:47;29.25;;;26.42;;
46339;SDS011;47273;49.274;8.708;2022-10-31T15:32:45;28.23;;;25.67;;
46339;SDS011;47273;49.274;8.708;2022-10-31T15:35:14;32.03;;;28.73;;
46339;SDS011;47273;49.274;8.708;2022-10-31T15:37:51;33.60;;;30.08;;
46339;SDS011;47273;49.274;8.708;2022-10-31T15:40:18;38.33;;;31.95;;
46339;SDS011;47273;49.274;8.708;2022-10-31T15:42:49;44.22;;;33.33;;
46339;SDS011;47273;49.274;8.708;2022-10-31T15:45:24;36.78;;;29.38;;
46339;SDS011;47273;49.274;8.708;2022-10-31T15:47:55;36.20;;;29.40;;
46339;SDS011;47273;49.274;8.708;2022-10-31T15:50:38;33.08;;;27.02;;
46339;SDS011;47273;49.274;8.708;2022-10-31T15:53:52;28.77;;;25.77;;
46339;SDS011;47273;49.274;8.708;2022-10-31T15:56:08;28.90;;;25.83;;
46339;SDS011;47273;49.274;8.708;2022-10-31T15:58:44;30.40;;;26.30;;
46339;SDS011;47273;49.274;8.708;2022-10-31T16:06:37;30.13;;;27.23;;
46339;SDS011;47273;49.274;8.708;2022-10-31T16:09:03;32.60;;;26.98;;
46339;SDS011;47273;49.274;8.708;2022-10-31T16:11:46;31.05;;;27.92;;
46339;SDS011;47273;49.274;8.708;2022-10-31T16:16:43;31.73;;;28.33;;
46339;SDS011;47273;49.274;8.708;2022-10-31T16:19:19;34.30;;;29.10;;
46339;SDS011;47273;49.274;8.708;2022-10-31T16:22:02;31.55;;;27.85;;
46339;SDS011;47273;49.274;8.708;2022-10-31T16:24:44;29.37;;;26.33;;
46339;SDS011;47273;49.274;8.708;2022-10-31T16:27:23;31.25;;;28.25;;
46339;SDS011;47273;49.274;8.708;2022-10-31T16:29:54;30.00;;;27.10;;
46339;SDS011;47273;49.274;8.708;2022-10-31T16:32:25;30.02;;;26.90;;
46339;SDS011;47273;49.274;8.708;2022-10-31T16:37:37;28.08;;;25.40;;
46339;SDS011;47273;49.274;8.708;2022-10-31T16:40:03;32.63;;;26.23;;
46339;SDS011;47273;49.274;8.708;2022-10-31T16:42:29;28.77;;;25.88;;
46339;SDS011;47273;49.274;8.708;2022-10-31T16:44:55;29.08;;;25.70;;
46339;SDS011;47273;49.274;8.708;2022-10-31T16:47:20;32.75;;;26.23;;
46339;SDS011;47273;49.274;8.708;2022-10-31T16:49:47;29.23;;;25.65;;
46339;SDS011;47273;49.274;8.708;2022-10-31T16:52:14;32.10;;;26.55;;
46339;SDS011;47273;49.274;8.708;2022-10-31T16:54:41;29.15;;;26.15;;
46339;SDS011;47273;49.274;8.708;2022-10-31T19:27:38;31.88;;;28.58;;
46339;SDS011;47273;49.274;8.708;2022-10-31T19:30:04;35.95;;;29.38;;
46339;SDS011;47273;49.274;8.708;2022-10-31T19:32:31;32.10;;;28.98;;
46339;SDS011;47273;49.274;8.708;2022-10-31T19:34:56;33.42;;;29.80;;
46339;SDS011;47273;49.274;8.708;2022-10-31T19:37:22;33.10;;;29.80;;
46339;SDS011;47273;49.274;8.708;2022-10-31T19:39:48;32.85;;;28.67;;
46339;SDS011;47273;49.274;8.708;2022-10-31T19:42:13;33.28;;;29.70;;
46339;SDS011;47273;49.274;8.708;2022-10-31T19:44:39;31.30;;;28.55;;
46339;SDS011;47273;49.274;8.708;2022-10-31T19:47:04;32.72;;;29.40;;
46339;SDS011;47273;49.274;8.708;2022-10-31T19:49:30;34.53;;;28.73;;
46339;SDS011;47273;49.274;8.708;2022-10-31T19:51:56;32.42;;;29.15;;
46339;SDS011;47273;49.274;8.708;2022-10-31T19:54:22;33.13;;;29.70;;
46339;SDS011;47273;49.274;8.708;2022-10-31T19:56:47;33.80;;;30.80;;
46339;SDS011;47273;49.274;8.708;2022-10-31T19:59:13;33.95;;;29.85;;
46339;SDS011;47273;49.274;8.708;2022-10-31T20:01:39;37.15;;;31.65;;
46339;SDS011;47273;49.274;8.708;2022-10-31T20:04:04;42.53;;;37.80;;
